Archival Weather

Republic

Farmingdale, New York (KFRG)

Report from: Wednesday, February 21, 2024 4:53 AM EST
Current time: Monday, June 24, 2024 6:57 AM EDT

Current weather – Weather history – Daily summaries
Weather forecast

Temperature-3.3°C (26.1°F)
Wind chill-6.4°C (20.5°F)
Dew point-7.8°C (18.0°F)
Winds 4 kts (2.1 m/s, 4.6 mph) North-Northeast (30°)
Visibility10 mi. (16.1 km)
Clouds Sky clear
Altimeter30.48 in.Hg (1032 mB)
Relative humidity71 %
Density altitude-2,846 ft. (-867 m)
Sea-level pressure103.2 kPa (1032 mB, 30.48 in.Hg)
Remarks Fully automated report
Automated weather observing station without precipitation discriminator
Freezing rain sensor not operating
Flight conditions Visual Meteorological Conditions
Raw dataKFRG 210953Z AUTO 03004KT 10SM CLR M03/M08 A3048 RMK AO1 SLP323 T10331078 FZRANO
An error has occurred. This application may no longer respond until reloaded. Reload 🗙